Time;durP1;ratioP1;P1;durP2;ratioP2;P2;SDS_P1;SDS_P2;PMS_P1;PMS_P2;Temp;Humidity;BMP_temperature;BMP_pressure;BME280_temperature;BME280_humidity;BME280_pressure;Samples;Min_cycle;Max_cycle;Signal;HPM_P1;HPM_P2
2023/05/23 00:00:04;;;;;;;;;;;;;;;;;;4974022;28;19913;-71
2023/05/23 00:02:30;;;;;;;;;;;;;;;;;;4972875;28;19921;-72
2023/05/23 00:04:57;;;;;;;;;;;;;;;;;;4973614;28;19913;-71
2023/05/23 00:07:23;;;;;;;;;;;;;;;;;;4975257;28;19921;-71
2023/05/23 00:09:49;;;;;;;;;;;;;;;;;;4976354;28;20322;-71
2023/05/23 00:12:15;;;;;;;;;;;;;;;;;;4972347;28;19968;-71
2023/05/23 00:14:41;;;;;;;;;;;;;;;;;;4974768;28;20384;-72
2023/05/23 00:17:09;;;;;;;;;;;;;;;;;;4973527;28;19952;-71
2023/05/23 00:19:35;;;;;;;;;;;;;;;;;;4991558;28;20354;-71
2023/05/23 00:22:02;;;;;;;;;;;;;;;;;;4971411;28;19917;-71
2023/05/23 00:24:28;;;;;;;;;;;;;;;;;;4925240;28;1498716;-71
2023/05/23 00:26:54;;;;;;;;;;;;;;;;;;4975865;28;20003;-71
2023/05/23 00:29:20;;;;;;;;;;;;;;;;;;4976184;28;19913;-70
2023/05/23 00:31:46;;;;;;;;;;;;;;;;;;4980716;28;19920;-71
2023/05/23 00:34:12;;;;;;;;;;;;;;;;;;4977693;28;19913;-74
2023/05/23 00:36:40;;;;;;;;;;;;;;;;;;4973941;28;19913;-71
2023/05/23 00:39:07;;;;;;;;;;;;;;;;;;4975731;28;20476;-74
2023/05/23 00:41:33;;;;;;;;;;;;;;;;;;4975207;28;19932;-72
2023/05/23 00:43:59;;;;;;;;;;;;;;;;;;4975970;28;19920;-73
2023/05/23 00:46:25;;;;;;;;;;;;;;;;;;4975321;28;20427;-71
2023/05/23 00:48:51;;;;;;;;;;;;;;;;;;4977989;28;20287;-73
2023/05/23 00:51:17;;;;;;;;;;;;;;;;;;4976743;28;19964;-72
2023/05/23 00:53:43;;;;;;;;;;;;;;;;;;4980096;28;19910;-72
2023/05/23 00:56:08;;;;;;;;;;;;;;;;;;4976161;28;19918;-72
2023/05/23 00:58:34;;;;;;;;;;;;;;;;;;4979351;28;20353;-72
2023/05/23 01:01:01;;;;;;;;;;;;;;;;;;4976384;28;19914;-72
2023/05/23 01:03:27;;;;;;;;;;;;;;;;;;4980345;28;20035;-72
2023/05/23 01:05:53;;;;;;;;;;;;;;;;;;4979271;28;20000;-72
2023/05/23 01:08:19;;;;;;;;;;;;;;;;;;4980206;28;20344;-72
2023/05/23 01:10:45;;;;;;;;;;;;;;;;;;4980441;28;20361;-72
2023/05/23 01:13:11;;;;;;;;;;;;;;;;;;4971946;28;19913;-71
2023/05/23 01:15:37;;;;;;;;;;;;;;;;;;4978142;28;20377;-71
2023/05/23 01:18:03;;;;;;;;;;;;;;;;;;4976063;28;20252;-71
2023/05/23 01:20:29;;;;;;;;;;;;;;;;;;4978705;28;20150;-74
2023/05/23 01:22:55;;;;;;;;;;;;;;;;;;4976451;28;19925;-71
2023/05/23 01:25:21;;;;;;;;;;;;;;;;;;4973695;28;19925;-71
2023/05/23 01:27:47;;;;;;;;;;;;;;;;;;4980506;28;19910;-71
2023/05/23 01:30:13;;;;;;;;;;;;;;;;;;4975154;28;23696;-73
2023/05/23 01:32:39;;;;;;;;;;;;;;;;;;4977948;28;19913;-73
2023/05/23 01:35:05;;;;;;;;;;;;;;;;;;4976945;28;19913;-72
2023/05/23 01:37:31;;;;;;;;;;;;;;;;;;4977775;28;19960;-72
2023/05/23 01:39:57;;;;;;;;;;;;;;;;;;4978729;28;20314;-72
2023/05/23 01:42:23;;;;;;;;;;;;;;;;;;4977871;28;19925;-71
2023/05/23 01:44:49;;;;;;;;;;;;;;;;;;4976592;28;19914;-71
2023/05/23 01:47:15;;;;;;;;;;;;;;;;;;4974181;28;21094;-71
2023/05/23 01:49:40;;;;;;;;;;;;;;;;;;4982250;28;20417;-72
2023/05/23 01:52:08;;;;;;;;;;;;;;;;;;4973903;28;19914;-73
2023/05/23 01:54:34;;;;;;;;;;;;;;;;;;4979325;28;19983;-71
2023/05/23 01:57:00;;;;;;;;;;;;;;;;;;4976672;28;20012;-71
2023/05/23 01:59:26;;;;;;;;;;;;;;;;;;4976821;28;20341;-74
2023/05/23 02:01:52;;;;;;;;;;;;;;;;;;4976703;28;20437;-72
2023/05/23 02:04:18;;;;;;;;;;;;;;;;;;4973743;28;20438;-73
2023/05/23 02:06:45;;;;;;;;;;;;;;;;;;4978906;28;19913;-73
2023/05/23 02:09:11;;;;;;;;;;;;;;;;;;4974644;28;19916;-73
2023/05/23 02:11:37;;;;;;;;;;;;;;;;;;4978869;28;20223;-71
2023/05/23 02:14:03;;;;;;;;;;;;;;;;;;4976564;28;20435;-73
2023/05/23 02:16:29;;;;;;;;;;;;;;;;;;4978151;28;19916;-73
2023/05/23 02:18:55;;;;;;;;;;;;;;;;;;4976817;28;19920;-73
2023/05/23 02:21:21;;;;;;;;;;;;;;;;;;4979756;28;20380;-72
2023/05/23 02:23:47;;;;;;;;;;;;;;;;;;4976873;28;19926;-73
2023/05/23 02:26:13;;;;;;;;;;;;;;;;;;4974782;28;19917;-72
2023/05/23 02:28:40;;;;;;;;;;;;;;;;;;4977678;28;20534;-72
2023/05/23 02:31:06;;;;;;;;;;;;;;;;;;4976287;28;19956;-72
2023/05/23 02:33:32;;;;;;;;;;;;;;;;;;4980993;28;20008;-72
2023/05/23 02:35:57;;;;;;;;;;;;;;;;;;4972452;28;20424;-72
2023/05/23 02:38:25;;;;;;;;;;;;;;;;;;4980575;28;19944;-71
2023/05/23 02:40:52;;;;;;;;;;;;;;;;;;4982015;28;19952;-73
2023/05/23 02:43:18;;;;;;;;;;;;;;;;;;4973019;28;20464;-73
2023/05/23 02:45:44;;;;;;;;;;;;;;;;;;4980125;28;20091;-73
2023/05/23 02:48:10;;;;;;;;;;;;;;;;;;4976414;28;20338;-73
2023/05/23 02:50:36;;;;;;;;;;;;;;;;;;4978196;28;19920;-70
2023/05/23 02:53:02;;;;;;;;;;;;;;;;;;4973893;28;19913;-71
2023/05/23 02:55:30;;;;;;;;;;;;;;;;;;4975496;28;20313;-71
2023/05/23 02:57:57;;;;;;;;;;;;;;;;;;4974164;28;20004;-71
2023/05/23 03:00:23;;;;;;;;;;;;;;;;;;5002839;28;19914;-72
2023/05/23 03:02:49;;;;;;;;;;;;;;;;;;4978604;28;19951;-71
2023/05/23 03:05:15;;;;;;;;;;;;;;;;;;4975443;28;19992;-71
2023/05/23 03:07:42;;;;;;;;;;;;;;;;;;4980567;28;20105;-71
2023/05/23 03:10:08;;;;;;;;;;;;;;;;;;4974929;28;19948;-73
2023/05/23 03:12:35;;;;;;;;;;;;;;;;;;4992733;28;20036;-73
2023/05/23 03:15:01;;;;;;;;;;;;;;;;;;4975235;28;19914;-73
2023/05/23 03:17:27;;;;;;;;;;;;;;;;;;4981137;28;19991;-71
2023/05/23 03:19:53;;;;;;;;;;;;;;;;;;4974283;28;20393;-72
2023/05/23 03:22:19;;;;;;;;;;;;;;;;;;4977092;28;19987;-71
2023/05/23 03:24:45;;;;;;;;;;;;;;;;;;4978353;28;20484;-72
2023/05/23 03:27:11;;;;;;;;;;;;;;;;;;4975546;28;19913;-71
2023/05/23 03:29:37;;;;;;;;;;;;;;;;;;4978937;28;19920;-71
2023/05/23 03:32:03;;;;;;;;;;;;;;;;;;4973190;28;20048;-72
2023/05/23 03:34:31;;;;;;;;;;;;;;;;;;4976175;28;19920;-72
2023/05/23 03:36:57;;;;;;;;;;;;;;;;;;4973518;28;20527;-71
2023/05/23 03:39:24;;;;;;;;;;;;;;;;;;4976735;28;20286;-71
2023/05/23 03:41:50;;;;;;;;;;;;;;;;;;4994998;28;20443;-71
2023/05/23 03:44:16;;;;;;;;;;;;;;;;;;4972568;28;19921;-71
2023/05/23 03:46:42;;;;;;;;;;;;;;;;;;4976422;28;20553;-71
2023/05/23 03:49:07;;;;;;;;;;;;;;;;;;4971821;28;20194;-72
2023/05/23 03:51:33;;;;;;;;;;;;;;;;;;4975820;28;19921;-71
2023/05/23 03:53:59;;;;;;;;;;;;;;;;;;4968982;28;20026;-71
2023/05/23 03:56:25;;;;;;;;;;;;;;;;;;4975980;28;20240;-71
2023/05/23 03:58:51;;;;;;;;;;;;;;;;;;4995865;28;20008;-70
2023/05/23 04:01:17;;;;;;;;;;;;;;;;;;4973999;28;20388;-70
2023/05/23 04:03:43;;;;;;;;;;;;;;;;;;4980146;28;20448;-71
2023/05/23 04:06:09;;;;;;;;;;;;;;;;;;4975792;28;20073;-71
2023/05/23 04:08:35;;;;;;;;;;;;;;;;;;4981356;28;19913;-71
2023/05/23 04:11:01;;;;;;;;;;;;;;;;;;4976765;28;20370;-71
2023/05/23 04:13:27;;;;;;;;;;;;;;;;;;4983008;28;19920;-71
2023/05/23 04:15:56;;;;;;;;;;;;;;;;;;4981360;28;20439;-71
2023/05/23 04:18:22;;;;;;;;;;;;;;;;;;4979024;28;19921;-71
2023/05/23 04:20:48;;;;;;;;;;;;;;;;;;4982520;28;20023;-71
2023/05/23 04:23:14;;;;;;;;;;;;;;;;;;4977055;28;20428;-72
2023/05/23 04:25:40;;;;;;;;;;;;;;;;;;4975962;28;20361;-71
2023/05/23 04:28:09;;;;;;;;;;;;;;;;;;4975377;28;19913;-71
2023/05/23 04:30:35;;;;;;;;;;;;;;;;;;4992704;28;20392;-71
2023/05/23 04:33:01;;;;;;;;;;;;;;;;;;4976394;28;19953;-71
2023/05/23 04:35:27;;;;;;;;;;;;;;;;;;4981940;28;19983;-71
2023/05/23 04:37:55;;;;;;;;;;;;;;;;;;4978644;28;19987;-71
2023/05/23 04:40:21;;;;;;;;;;;;;;;;;;4979820;28;20543;-71
2023/05/23 04:42:47;;;;;;;;;;;;;;;;;;4981549;28;19949;-71
2023/05/23 04:45:13;;;;;;;;;;;;;;;;;;4975667;28;20501;-71
2023/05/23 04:47:40;;;;;;;;;;;;;;;;;;4980082;28;19913;-71
2023/05/23 04:50:06;;;;;;;;;;;;;;;;;;4973526;28;19914;-71
2023/05/23 04:52:32;;;;;;;;;;;;;;;;;;4976212;28;20320;-71
2023/05/23 04:54:59;;;;;;;;;;;;;;;;;;4980010;28;19917;-71
2023/05/23 04:57:25;;;;;;;;;;;;;;;;;;4978049;28;19964;-71
2023/05/23 04:59:51;;;;;;;;;;;;;;;;;;4980412;28;19913;-71
2023/05/23 05:02:17;;;;;;;;;;;;;;;;;;4975456;28;20513;-71
2023/05/23 05:04:43;;;;;;;;;;;;;;;;;;4978285;28;19913;-72
2023/05/23 05:07:09;;;;;;;;;;;;;;;;;;4975431;28;20374;-71
2023/05/23 05:09:35;;;;;;;;;;;;;;;;;;4992915;28;19967;-72
2023/05/23 05:12:01;;;;;;;;;;;;;;;;;;4976456;28;19913;-71
2023/05/23 05:14:27;;;;;;;;;;;;;;;;;;4980096;28;19909;-71
2023/05/23 05:16:56;;;;;;;;;;;;;;;;;;4978740;28;20210;-71
2023/05/23 05:19:22;;;;;;;;;;;;;;;;;;4980714;28;19944;-72
2023/05/23 05:21:48;;;;;;;;;;;;;;;;;;4977799;28;20032;-71
2023/05/23 05:24:14;;;;;;;;;;;;;;;;;;4974798;28;20220;-71
2023/05/23 05:26:40;;;;;;;;;;;;;;;;;;4980129;28;19913;-71
2023/05/23 05:29:06;;;;;;;;;;;;;;;;;;4973636;28;20843;-71
2023/05/23 05:31:32;;;;;;;;;;;;;;;;;;4977588;28;20368;-71
2023/05/23 05:33:58;;;;;;;;;;;;;;;;;;4977760;28;19913;-71
2023/05/23 05:36:24;;;;;;;;;;;;;;;;;;4979776;28;20020;-71
2023/05/23 05:38:50;;;;;;;;;;;;;;;;;;4978662;28;19920;-71
2023/05/23 05:41:16;;;;;;;;;;;;;;;;;;4974694;28;19913;-71
2023/05/23 05:43:42;;;;;;;;;;;;;;;;;;5004148;28;20114;-71
2023/05/23 05:46:08;;;;;;;;;;;;;;;;;;4976096;28;20381;-73
2023/05/23 05:48:34;;;;;;;;;;;;;;;;;;4978550;28;20201;-73
2023/05/23 05:51:02;;;;;;;;;;;;;;;;;;4976241;28;19914;-73
2023/05/23 05:53:28;;;;;;;;;;;;;;;;;;4977911;28;19923;-71
2023/05/23 05:55:54;;;;;;;;;;;;;;;;;;4991156;28;20253;-70
2023/05/23 05:58:20;;;;;;;;;;;;;;;;;;4978597;28;19917;-73
2023/05/23 06:00:46;;;;;;;;;;;;;;;;;;4977247;28;19951;-72
2023/05/23 06:03:12;;;;;;;;;;;;;;;;;;4970409;28;20484;-73
2023/05/23 06:05:38;;;;;;;;;;;;;;;;;;4982124;28;19914;-72
2023/05/23 06:08:05;;;;;;;;;;;;;;;;;;4977452;28;19921;-72
2023/05/23 06:10:31;;;;;;;;;;;;;;;;;;4979576;28;20007;-73
2023/05/23 06:12:57;;;;;;;;;;;;;;;;;;4972383;28;19913;-71
2023/05/23 06:15:23;;;;;;;;;;;;;;;;;;4978993;28;19982;-72
2023/05/23 06:17:50;;;;;;;;;;;;;;;;;;4976157;28;19992;-73
2023/05/23 06:20:16;;;;;;;;;;;;;;;;;;4974781;28;19982;-73
2023/05/23 06:22:42;;;;;;;;;;;;;;;;;;4973287;28;19928;-72
2023/05/23 06:25:08;;;;;;;;;;;;;;;;;;4974544;28;19987;-71
2023/05/23 06:27:34;;;;;;;;;;;;;;;;;;4987118;28;20338;-71
2023/05/23 06:30:00;;;;;;;;;;;;;;;;;;4970878;28;19914;-71
2023/05/23 06:32:26;;;;;;;;;;;;;;;;;;4978699;28;19914;-70
2023/05/23 06:34:52;;;;;;;;;;;;;;;;;;4974584;28;19914;-71
2023/05/23 06:37:18;;;;;;;;;;;;;;;;;;4971873;28;19996;-72
2023/05/23 06:39:44;;;;;;;;;;;;;;;;;;4978179;28;19979;-72
2023/05/23 06:42:10;;;;;;;;;;;;;;;;;;4974226;28;19961;-72
2023/05/23 06:44:36;;;;;;;;;;;;;;;;;;4977328;28;19956;-72
2023/05/23 06:47:02;;;;;;;;;;;;;;;;;;4971683;28;20086;-72
2023/05/23 06:49:28;;;;;;;;;;;;;;;;;;4972955;28;20456;-72
2023/05/23 06:51:54;;;;;;;;;;;;;;;;;;4977166;28;19914;-71
2023/05/23 06:54:20;;;;;;;;;;;;;;;;;;4973668;28;20872;-72
2023/05/23 06:56:46;;;;;;;;;;;;;;;;;;4975283;28;19917;-72
2023/05/23 06:59:12;;;;;;;;;;;;;;;;;;4974273;28;19913;-72
2023/05/23 07:01:38;;;;;;;;;;;;;;;;;;4975986;28;19944;-72
2023/05/23 07:04:04;;;;;;;;;;;;;;;;;;4976225;28;19920;-72
2023/05/23 07:06:31;;;;;;;;;;;;;;;;;;4980274;28;19921;-72
2023/05/23 07:08:57;;;;;;;;;;;;;;;;;;4977506;28;20032;-72
2023/05/23 07:11:23;;;;;;;;;;;;;;;;;;4979205;28;20603;-72
2023/05/23 07:13:49;;;;;;;;;;;;;;;;;;4977781;28;19914;-72
2023/05/23 07:16:15;;;;;;;;;;;;;;;;;;4979454;28;19914;-73
2023/05/23 07:18:41;;;;;;;;;;;;;;;;;;4978666;28;19949;-71
2023/05/23 07:21:07;;;;;;;;;;;;;;;;;;4975880;28;20015;-72
2023/05/23 07:23:33;;;;;;;;;;;;;;;;;;4976964;28;20393;-72
2023/05/23 07:25:59;;;;;;;;;;;;;;;;;;4970474;28;19921;-71
2023/05/23 07:28:25;;;;;;;;;;;;;;;;;;4977549;28;20250;-71
2023/05/23 07:30:51;;;;;;;;;;;;;;;;;;4978507;28;19913;-71
2023/05/23 07:33:17;;;;;;;;;;;;;;;;;;4973669;28;20015;-71
2023/05/23 07:35:43;;;;;;;;;;;;;;;;;;4978134;28;20401;-72
2023/05/23 07:38:09;;;;;;;;;;;;;;;;;;4970655;28;19913;-72
2023/05/23 07:40:36;;;;;;;;;;;;;;;;;;4976319;28;19943;-73
2023/05/23 07:43:02;;;;;;;;;;;;;;;;;;4968721;28;20512;-71
2023/05/23 07:45:28;;;;;;;;;;;;;;;;;;4977917;28;20171;-71
2023/05/23 07:47:54;;;;;;;;;;;;;;;;;;4972874;28;19914;-70
2023/05/23 07:50:20;;;;;;;;;;;;;;;;;;4979908;28;20008;-71
2023/05/23 07:52:46;;;;;;;;;;;;;;;;;;4975702;28;20028;-71
2023/05/23 07:55:12;;;;;;;;;;;;;;;;;;4977251;28;19918;-71
2023/05/23 07:57:38;;;;;;;;;;;;;;;;;;4975128;28;19913;-71
2023/05/23 08:00:05;;;;;;;;;;;;;;;;;;4974533;28;20234;-71
2023/05/23 08:02:32;;;;;;;;;;;;;;;;;;4973989;28;20679;-73
2023/05/23 08:04:58;;;;;;;;;;;;;;;;;;4973034;28;19952;-73
2023/05/23 08:07:24;;;;;;;;;;;;;;;;;;4978385;28;19964;-73
2023/05/23 08:09:50;;;;;;;;;;;;;;;;;;4976591;28;20613;-73
2023/05/23 08:12:16;;;;;;;;;;;;;;;;;;4971157;28;19914;-73
2023/05/23 08:14:42;;;;;;;;;;;;;;;;;;4976695;28;19920;-73
2023/05/23 08:17:08;;;;;;;;;;;;;;;;;;4970997;28;19913;-72
2023/05/23 08:19:34;;;;;;;;;;;;;;;;;;4976974;28;19914;-73
2023/05/23 08:22:00;;;;;;;;;;;;;;;;;;4976267;28;19940;-72
2023/05/23 08:24:29;;;;;;;;;;;;;;;;;;4974159;28;20298;-72
2023/05/23 08:26:55;;;;;;;;;;;;;;;;;;4973070;28;19914;-72
2023/05/23 08:29:21;;;;;;;;;;;;;;;;;;4972306;28;19920;-72
2023/05/23 08:31:46;;;;;;;;;;;;;;;;;;4975001;28;20439;-71
2023/05/23 08:34:13;;;;;;;;;;;;;;;;;;4974774;28;20803;-72
2023/05/23 08:36:39;;;;;;;;;;;;;;;;;;4976142;28;19919;-71
2023/05/23 08:39:05;;;;;;;;;;;;;;;;;;4973270;28;20151;-70
2023/05/23 08:41:31;;;;;;;;;;;;;;;;;;4980113;28;20392;-71
2023/05/23 08:43:57;;;;;;;;;;;;;;;;;;4975634;28;20540;-70
2023/05/23 08:46:23;;;;;;;;;;;;;;;;;;4980072;28;19917;-73
2023/05/23 08:48:49;;;;;;;;;;;;;;;;;;4979758;28;19920;-71
2023/05/23 08:51:15;;;;;;;;;;;;;;;;;;4974915;28;19999;-71
2023/05/23 08:53:45;;;;;;;;;;;;;;;;;;4979513;28;20286;-71
2023/05/23 08:56:11;;;;;;;;;;;;;;;;;;4972154;28;19933;-71
2023/05/23 08:58:37;;;;;;;;;;;;;;;;;;4979879;28;20847;-71
2023/05/23 09:01:03;;;;;;;;;;;;;;;;;;4975544;28;19924;-71
2023/05/23 09:03:29;;;;;;;;;;;;;;;;;;4979163;28;19964;-71
2023/05/23 09:05:56;;;;;;;;;;;;;;;;;;4975106;28;19924;-71
2023/05/23 09:08:23;;;;;;;;;;;;;;;;;;4976711;28;20548;-72
2023/05/23 09:10:49;;;;;;;;;;;;;;;;;;4976279;28;19967;-71
2023/05/23 09:13:16;;;;;;;;;;;;;;;;;;4978267;28;20326;-71
2023/05/23 09:15:43;;;;;;;;;;;;;;;;;;4976763;28;20011;-70
2023/05/23 09:18:10;;;;;;;;;;;;;;;;;;4976812;28;20421;-73
2023/05/23 09:20:36;;;;;;;;;;;;;;;;;;4979289;28;20127;-72
2023/05/23 09:23:02;;;;;;;;;;;;;;;;;;4978426;28;20123;-71
2023/05/23 09:25:28;;;;;;;;;;;;;;;;;;4979109;28;19917;-71
2023/05/23 09:27:55;;;;;;;;;;;;;;;;;;4977135;28;19909;-70
2023/05/23 09:30:21;;;;;;;;;;;;;;;;;;4975938;28;19913;-71
2023/05/23 09:32:47;;;;;;;;;;;;;;;;;;4979187;28;19913;-71
2023/05/23 09:35:13;;;;;;;;;;;;;;;;;;4976581;28;20007;-71
2023/05/23 09:37:39;;;;;;;;;;;;;;;;;;4977454;28;19909;-71
2023/05/23 09:40:05;;;;;;;;;;;;;;;;;;5000333;28;19924;-70
2023/05/23 09:42:32;;;;;;;;;;;;;;;;;;4975234;28;19953;-71
2023/05/23 09:44:58;;;;;;;;;;;;;;;;;;4972315;28;19996;-70
2023/05/23 09:47:25;;;;;;;;;;;;;;;;;;4975656;28;20717;-73
2023/05/23 09:49:51;;;;;;;;;;;;;;;;;;4981020;28;20315;-72
2023/05/23 09:52:19;;;;;;;;;;;;;;;;;;4973781;28;19917;-71
2023/05/23 09:54:45;;;;;;;;;;;;;;;;;;4977421;28;20453;-71
2023/05/23 09:57:11;;;;;;;;;;;;;;;;;;4975913;28;20023;-71
2023/05/23 09:59:37;;;;;;;;;;;;;;;;;;4978022;28;20012;-71
2023/05/23 10:02:03;;;;;;;;;;;;;;;;;;4973950;28;19917;-71
2023/05/23 10:04:29;;;;;;;;;;;;;;;;;;5005990;28;19917;-71
2023/05/23 10:06:56;;;;;;;;;;;;;;;;;;4974534;28;20400;-72
2023/05/23 10:09:22;;;;;;;;;;;;;;;;;;4980534;28;19913;-71
2023/05/23 10:11:48;;;;;;;;;;;;;;;;;;4976969;28;19920;-71
2023/05/23 10:14:15;;;;;;;;;;;;;;;;;;4977362;28;20495;-71
2023/05/23 10:16:41;;;;;;;;;;;;;;;;;;4976500;28;20280;-71
2023/05/23 10:19:07;;;;;;;;;;;;;;;;;;4972674;28;20035;-71
2023/05/23 10:21:34;;;;;;;;;;;;;;;;;;4975063;28;20134;-71
2023/05/23 10:24:00;;;;;;;;;;;;;;;;;;4972017;28;20322;-71
2023/05/23 10:26:27;;;;;;;;;;;;;;;;;;4980157;28;19920;-71
2023/05/23 10:28:53;;;;;;;;;;;;;;;;;;4977064;28;20262;-72
2023/05/23 10:31:19;;;;;;;;;;;;;;;;;;4975280;28;19947;-71
2023/05/23 10:33:45;;;;;;;;;;;;;;;;;;4973568;28;19956;-71
2023/05/23 10:36:11;;;;;;;;;;;;;;;;;;4972457;28;20702;-71
2023/05/23 10:38:37;;;;;;;;;;;;;;;;;;4976782;28;20164;-71
2023/05/23 10:41:03;;;;;;;;;;;;;;;;;;4976774;28;20125;-70
2023/05/23 10:43:29;;;;;;;;;;;;;;;;;;4975491;28;19924;-72
2023/05/23 10:45:55;;;;;;;;;;;;;;;;;;4970308;28;20369;-71
2023/05/23 10:48:23;;;;;;;;;;;;;;;;;;4976191;28;20009;-70
2023/05/23 10:50:49;;;;;;;;;;;;;;;;;;4973137;28;19993;-73
2023/05/23 10:53:15;;;;;;;;;;;;;;;;;;4971411;28;19913;-71
2023/05/23 10:55:41;;;;;;;;;;;;;;;;;;4980015;28;20238;-70
2023/05/23 10:58:07;;;;;;;;;;;;;;;;;;4973766;28;20781;-72
2023/05/23 11:00:33;;;;;;;;;;;;;;;;;;4977897;28;19921;-71
2023/05/23 11:03:00;;;;;;;;;;;;;;;;;;4972379;28;20280;-69
2023/05/23 11:05:27;;;;;;;;;;;;;;;;;;4973925;28;19945;-70
2023/05/23 11:07:53;;;;;;;;;;;;;;;;;;4974248;28;20247;-71
2023/05/23 11:10:19;;;;;;;;;;;;;;;;;;4974530;28;19920;-70
2023/05/23 11:12:44;;;;;;;;;;;;;;;;;;4977482;28;20571;-73
2023/05/23 11:15:10;;;;;;;;;;;;;;;;;;4971058;28;20691;-74
2023/05/23 11:17:36;;;;;;;;;;;;;;;;;;4975204;28;20527;-77
2023/05/23 11:20:06;;;;;;;;;;;;;;;;;;4975821;28;19914;-77
2023/05/23 11:22:32;;;;;;;;;;;;;;;;;;4976136;28;20827;-79
2023/05/23 11:24:58;;;;;;;;;;;;;;;;;;4976158;28;20837;-78
2023/05/23 11:27:24;;;;;;;;;;;;;;;;;;4978100;28;19921;-78
2023/05/23 11:29:50;;;;;;;;;;;;;;;;;;4982653;28;20337;-78
2023/05/23 11:32:16;;;;;;;;;;;;;;;;;;4977730;28;20262;-78
2023/05/23 11:34:41;;;;;;;;;;;;;;;;;;4981483;28;19949;-78
2023/05/23 11:37:07;;;;;;;;;;;;;;;;;;4978559;28;19985;-78
2023/05/23 11:39:34;;;;;;;;;;;;;;;;;;4977807;28;19914;-79
2023/05/23 11:42:00;;;;;;;;;;;;;;;;;;4975715;28;19913;-78
2023/05/23 11:44:25;;;;;;;;;;;;;;;;;;4980126;28;19920;-78
2023/05/23 11:46:51;;;;;;;;;;;;;;;;;;4978472;28;19914;-78
2023/05/23 11:49:17;;;;;;;;;;;;;;;;;;4978639;28;19921;-79
2023/05/23 11:51:43;;;;;;;;;;;;;;;;;;4978499;28;19948;-78
2023/05/23 11:54:09;;;;;;;;;;;;;;;;;;4976006;28;19917;-79
2023/05/23 11:56:35;;;;;;;;;;;;;;;;;;4978288;28;19913;-78
2023/05/23 11:59:01;;;;;;;;;;;;;;;;;;4974639;28;20061;-79
2023/05/23 12:01:27;;;;;;;;;;;;;;;;;;4978447;28;19921;-79
2023/05/23 12:03:53;;;;;;;;;;;;;;;;;;4980649;28;20429;-78
2023/05/23 12:06:19;;;;;;;;;;;;;;;;;;4977775;28;20535;-80
2023/05/23 12:08:45;;;;;;;;;;;;;;;;;;4974962;28;20340;-80
2023/05/23 12:11:11;;;;;;;;;;;;;;;;;;4970863;28;19944;-79
2023/05/23 12:13:37;;;;;;;;;;;;;;;;;;4992750;28;19917;-79
2023/05/23 12:16:03;;;;;;;;;;;;;;;;;;4974663;28;20082;-79
2023/05/23 12:18:29;;;;;;;;;;;;;;;;;;4980533;28;19913;-79
2023/05/23 12:20:55;;;;;;;;;;;;;;;;;;4979569;28;19913;-78
2023/05/23 12:23:21;;;;;;;;;;;;;;;;;;4979635;28;20451;-79
2023/05/23 12:25:47;;;;;;;;;;;;;;;;;;4979226;28;19917;-78
2023/05/23 12:28:14;;;;;;;;;;;;;;;;;;4977634;28;20269;-79
2023/05/23 12:30:43;;;;;;;;;;;;;;;;;;4982764;28;19913;-78
2023/05/23 12:33:10;;;;;;;;;;;;;;;;;;4979923;28;19936;-80
2023/05/23 12:35:36;;;;;;;;;;;;;;;;;;4979879;28;19918;-80
2023/05/23 12:38:02;;;;;;;;;;;;;;;;;;4976179;28;19913;-78
2023/05/23 12:40:28;;;;;;;;;;;;;;;;;;4981938;28;19913;-78
2023/05/23 12:42:54;;;;;;;;;;;;;;;;;;4977012;28;20366;-77
2023/05/23 12:45:20;;;;;;;;;;;;;;;;;;4980914;28;19920;-79
2023/05/23 12:47:46;;;;;;;;;;;;;;;;;;4979860;28;19924;-79
2023/05/23 12:50:12;;;;;;;;;;;;;;;;;;4976680;28;20556;-80
2023/05/23 12:52:39;;;;;;;;;;;;;;;;;;4980732;28;19909;-79
2023/05/23 12:55:05;;;;;;;;;;;;;;;;;;4978107;28;19917;-79
2023/05/23 12:57:31;;;;;;;;;;;;;;;;;;4980343;28;20020;-79
2023/05/23 12:59:57;;;;;;;;;;;;;;;;;;4973698;28;20341;-78
2023/05/23 13:02:23;;;;;;;;;;;;;;;;;;4982884;28;20894;-78
2023/05/23 13:04:49;;;;;;;;;;;;;;;;;;4994437;28;20300;-79
2023/05/23 13:07:15;;;;;;;;;;;;;;;;;;4979820;28;20720;-78
2023/05/23 13:09:41;;;;;;;;;;;;;;;;;;4979214;28;19913;-78
2023/05/23 13:12:08;;;;;;;;;;;;;;;;;;4977649;28;19980;-78
2023/05/23 13:14:34;;;;;;;;;;;;;;;;;;4978661;28;19916;-78
2023/05/23 13:17:00;;;;;;;;;;;;;;;;;;4971858;28;19914;-78
2023/05/23 13:19:25;;;;;;;;;;;;;;;;;;4981166;28;19920;-79
2023/05/23 13:21:51;;;;;;;;;;;;;;;;;;4976677;28;19913;-79
2023/05/23 13:24:17;;;;;;;;;;;;;;;;;;4976817;28;19936;-80
2023/05/23 13:26:43;;;;;;;;;;;;;;;;;;4979347;28;19940;-77
2023/05/23 13:29:09;;;;;;;;;;;;;;;;;;4977594;28;20440;-80
2023/05/23 13:31:35;;;;;;;;;;;;;;;;;;4978338;28;20384;-79
2023/05/23 13:34:01;;;;;;;;;;;;;;;;;;4979815;28;20656;-79
2023/05/23 13:36:28;;;;;;;;;;;;;;;;;;4980780;28;19913;-79
2023/05/23 13:38:54;;;;;;;;;;;;;;;;;;4982343;28;19949;-79
2023/05/23 13:41:20;;;;;;;;;;;;;;;;;;4982493;28;19956;-79
2023/05/23 13:43:46;;;;;;;;;;;;;;;;;;4978756;28;19917;-79
2023/05/23 13:46:13;;;;;;;;;;;;;;;;;;4980099;28;19960;-79
2023/05/23 13:48:39;;;;;;;;;;;;;;;;;;4975817;28;19932;-80
2023/05/23 13:51:05;;;;;;;;;;;;;;;;;;4974370;28;20768;-79
2023/05/23 13:53:31;;;;;;;;;;;;;;;;;;4978640;28;20032;-78
2023/05/23 13:55:57;;;;;;;;;;;;;;;;;;4979163;28;19939;-77
2023/05/23 13:58:23;;;;;;;;;;;;;;;;;;4981680;28;19917;-78
2023/05/23 14:00:49;;;;;;;;;;;;;;;;;;4982842;28;19916;-80
2023/05/23 14:03:17;;;;;;;;;;;;;;;;;;4976184;28;20582;-80
2023/05/23 14:05:43;;;;;;;;;;;;;;;;;;4979420;28;19920;-77
2023/05/23 14:08:10;;;;;;;;;;;;;;;;;;4975684;28;20296;-79
2023/05/23 14:10:36;;;;;;;;;;;;;;;;;;4993595;28;19976;-79
2023/05/23 14:13:02;;;;;;;;;;;;;;;;;;4977424;28;20464;-79
2023/05/23 14:15:28;;;;;;;;;;;;;;;;;;4975819;28;19917;-69
2023/05/23 14:17:55;;;;;;;;;;;;;;;;;;4974972;28;19913;-68
2023/05/23 14:20:21;;;;;;;;;;;;;;;;;;4976258;28;20540;-68
2023/05/23 14:22:47;;;;;;;;;;;;;;;;;;4973159;28;19921;-68
2023/05/23 14:25:13;;;;;;;;;;;;;;;;;;4971648;28;19917;-69
2023/05/23 14:27:39;;;;;;;;;;;;;;;;;;4977620;28;19991;-68
2023/05/23 14:30:05;;;;;;;;;;;;;;;;;;4973494;28;19913;-69
2023/05/23 14:32:37;;;;;;;;;;;;;;;;;;4973467;28;20471;-69
2023/05/23 14:35:03;;;;;;;;;;;;;;;;;;4972039;28;19913;-69
2023/05/23 14:37:29;;;;;;;;;;;;;;;;;;4974521;28;20368;-69
2023/05/23 14:39:55;;;;;;;;;;;;;;;;;;4972990;28;19992;-69
2023/05/23 14:42:21;;;;;;;;;;;;;;;;;;4974037;28;20536;-69
2023/05/23 14:44:47;;;;;;;;;;;;;;;;;;4974167;28;19917;-69
2023/05/23 14:47:13;;;;;;;;;;;;;;;;;;4970911;28;19913;-69
2023/05/23 14:49:39;;;;;;;;;;;;;;;;;;4978635;28;20148;-68
2023/05/23 14:52:05;;;;;;;;;;;;;;;;;;4973288;28;20895;-68
2023/05/23 14:54:31;;;;;;;;;;;;;;;;;;4974336;28;19921;-69
2023/05/23 14:56:57;;;;;;;;;;;;;;;;;;4974555;28;20281;-69
2023/05/23 14:59:23;;;;;;;;;;;;;;;;;;4976817;28;19939;-67
2023/05/23 15:01:49;;;;;;;;;;;;;;;;;;4974336;28;19921;-68
2023/05/23 15:04:15;;;;;;;;;;;;;;;;;;4972191;28;19921;-68
2023/05/23 15:06:41;;;;;;;;;;;;;;;;;;4977955;28;19913;-68
2023/05/23 15:09:09;;;;;;;;;;;;;;;;;;4968324;28;19917;-68
2023/05/23 15:11:37;;;;;;;;;;;;;;;;;;4972649;28;19920;-68
2023/05/23 15:14:03;;;;;;;;;;;;;;;;;;4971705;28;19947;-68
2023/05/23 15:16:33;;;;;;;;;;;;;;;;;;4976606;28;19961;-68
2023/05/23 15:18:59;;;;;;;;;;;;;;;;;;4969018;28;20373;-67
2023/05/23 15:21:25;;;;;;;;;;;;;;;;;;4979016;28;19917;-68
2023/05/23 15:23:51;;;;;;;;;;;;;;;;;;4973385;28;19964;-67
2023/05/23 15:26:17;;;;;;;;;;;;;;;;;;4969326;28;20850;-67
2023/05/23 15:28:43;;;;;;;;;;;;;;;;;;4975107;28;19914;-68
2023/05/23 15:31:09;;;;;;;;;;;;;;;;;;4971714;28;19913;-70
2023/05/23 15:33:35;;;;;;;;;;;;;;;;;;4977735;28;19917;-69
2023/05/23 15:36:01;;;;;;;;;;;;;;;;;;4974661;28;20017;-69
2023/05/23 15:38:27;;;;;;;;;;;;;;;;;;4975763;28;19913;-69
2023/05/23 15:40:55;;;;;;;;;;;;;;;;;;4979097;28;20509;-69
2023/05/23 15:43:21;;;;;;;;;;;;;;;;;;4974602;28;20280;-68
2023/05/23 15:45:47;;;;;;;;;;;;;;;;;;4974144;28;20415;-68
2023/05/23 15:48:13;;;;;;;;;;;;;;;;;;4970162;28;19914;-68
2023/05/23 15:50:39;;;;;;;;;;;;;;;;;;4975392;28;20572;-67
2023/05/23 15:53:05;;;;;;;;;;;;;;;;;;4969014;28;20373;-71
2023/05/23 15:55:31;;;;;;;;;;;;;;;;;;4979365;28;19992;-68
2023/05/23 15:57:57;;;;;;;;;;;;;;;;;;4977167;28;19925;-71
2023/05/23 16:00:23;;;;;;;;;;;;;;;;;;4979184;28;19996;-70
2023/05/23 16:02:48;;;;;;;;;;;;;;;;;;4980528;28;20585;-69
2023/05/23 16:05:14;;;;;;;;;;;;;;;;;;4974554;28;19917;-69
2023/05/23 16:07:40;;;;;;;;;;;;;;;;;;4977205;28;19917;-69
2023/05/23 16:10:06;;;;;;;;;;;;;;;;;;4975936;28;20441;-69
2023/05/23 16:12:32;;;;;;;;;;;;;;;;;;4979487;28;19957;-69
2023/05/23 16:14:58;;;;;;;;;;;;;;;;;;4972217;28;19968;-68
2023/05/23 16:17:24;;;;;;;;;;;;;;;;;;4977441;28;19917;-68
2023/05/23 16:19:50;;;;;;;;;;;;;;;;;;4979776;28;20278;-69
2023/05/23 16:22:16;;;;;;;;;;;;;;;;;;4977914;28;19972;-67
2023/05/23 16:24:42;;;;;;;;;;;;;;;;;;4979452;28;19917;-70
2023/05/23 16:27:08;;;;;;;;;;;;;;;;;;4975987;28;19921;-67
2023/05/23 16:29:34;;;;;;;;;;;;;;;;;;4979438;28;19917;-70
2023/05/23 16:32:00;;;;;;;;;;;;;;;;;;4989570;28;19914;-70
2023/05/23 16:34:26;;;;;;;;;;;;;;;;;;4976107;28;20016;-69
2023/05/23 16:36:52;;;;;;;;;;;;;;;;;;4980399;28;19913;-69